Country
Station

 

Weather  for  Stampede Pass  -  United States    United States

  
6 °C (43 °F)
    
 
 

Current METAR for Stampede Pass is :

KSMP 161256Z AUTO 02003KT 10SM OVC080 06/M01 A2987 RMK AO2 SLP120 T00561011

 

This is a report for Stampede Pass - United States.
 
The report was made 11 minutes ago, at 12:56 UTC .
The wind was blowing at a speed of 1.5 meters per second (3.5 miles per hour) from north/northeast (020°).
 
The temperature was 6 °C (43 °F), with a dew-point at -1 °C (30 °F).
The atmospheric pressure was 1012 hPa (29.87 inHg).
The relative humidity was 60.7%.
 
The sky was overcast from a height of 2438 meter (8000 feet)
 
The overall visibility was 16.1 kilometers (10.0 miles).
 

 
 
 
 

Country :   A   B   C   D   E   F   G   H   I   J   K   L   M   N   O   P   Q   R   S   T   U   V   W   Y   Z

 

Site Info  |  Disclaimer  |  Credits  |  Privacy
Contact us  |  Add to favorites
© 2013-2019 METARs - All rights reserved